Time;durP1;ratioP1;P1;durP2;ratioP2;P2;SDS_P1;SDS_P2;PMS_P1;PMS_P2;Temp;Humidity;BMP_temperature;BMP_pressure;BME280_temperature;BME280_humidity;BME280_pressure;Samples;Min_cycle;Max_cycle;Signal;HPM_P1;HPM_P2
2022/01/25 00:31:46;;;;;;;22.67;13.50;;;;;;;;;;5029906;28;20018;-71
2022/01/25 00:34:31;;;;;;;20.02;13.43;;;;;;;;;;5011462;28;20034;-76
2022/01/25 00:37:16;;;;;;;24.92;13.82;;;;;;;;;;5015532;28;20029;-66
2022/01/25 00:40:04;;;;;;;27.63;13.45;;;;;;;;;;5027339;28;20452;-68
2022/01/25 00:42:49;;;;;;;23.58;13.52;;;;;;;;;;5016925;28;20106;-67
2022/01/25 00:45:35;;;;;;;24.55;14.20;;;;;;;;;;5028139;28;20045;-68
2022/01/25 00:48:31;;;;;;;21.70;12.68;;;;;;;;;;5024897;28;20026;-67
2022/01/25 00:54:30;;;;;;;24.67;15.83;;;;;;;;;;5024278;28;20030;-70
2022/01/25 00:57:15;;;;;;;22.35;13.55;;;;;;;;;;5031052;28;20022;-72
2022/01/25 01:00:00;;;;;;;20.83;13.85;;;;;;;;;;5027321;28;20032;-73
2022/01/25 01:02:45;;;;;;;23.73;14.55;;;;;;;;;;5015538;28;20148;-73
2022/01/25 01:05:31;;;;;;;23.27;14.30;;;;;;;;;;5015983;28;20491;-74
2022/01/25 01:08:16;;;;;;;23.67;13.48;;;;;;;;;;5025089;28;20033;-73
2022/01/25 01:11:05;;;;;;;21.20;12.60;;;;;;;;;;5027284;28;20456;-74
2022/01/25 01:14:04;;;;;;;20.75;13.75;;;;;;;;;;5031024;28;20040;-75
2022/01/25 01:32:03;;;;;;;23.35;13.75;;;;;;;;;;5027652;28;20026;-72
2022/01/25 01:41:07;;;;;;;22.48;13.93;;;;;;;;;;5020311;28;20053;-69
2022/01/25 01:43:55;;;;;;;23.38;13.02;;;;;;;;;;5020799;28;20033;-69
2022/01/25 01:46:56;;;;;;;21.85;13.35;;;;;;;;;;5029907;28;20032;-68
2022/01/25 01:49:44;;;;;;;24.25;14.20;;;;;;;;;;5003594;28;20033;-73
2022/01/25 01:52:29;;;;;;;21.83;13.98;;;;;;;;;;5029063;28;20508;-69
2022/01/25 01:55:14;;;;;;;22.60;12.82;;;;;;;;;;5012071;28;20030;-71
2022/01/25 01:58:00;;;;;;;23.48;13.65;;;;;;;;;;5001101;28;20550;-69
2022/01/25 02:00:46;;;;;;;25.02;14.35;;;;;;;;;;5014633;28;20025;-71
2022/01/25 02:03:32;;;;;;;27.88;13.93;;;;;;;;;;5006662;28;20017;-69
2022/01/25 02:06:17;;;;;;;19.95;12.55;;;;;;;;;;5022488;28;20054;-70
2022/01/25 02:09:04;;;;;;;25.25;15.00;;;;;;;;;;5027601;28;20017;-75
2022/01/25 02:11:49;;;;;;;23.40;14.65;;;;;;;;;;5027238;28;20184;-73
2022/01/25 02:14:36;;;;;;;22.73;13.85;;;;;;;;;;5029989;28;20500;-73
2022/01/25 02:17:57;;;;;;;19.65;13.20;;;;;;;;;;5014435;28;20026;-73
2022/01/25 02:23:34;;;;;;;26.80;15.18;;;;;;;;;;5028167;28;20407;-75
2022/01/25 02:26:19;;;;;;;25.50;15.40;;;;;;;;;;5027536;28;20025;-72
2022/01/25 02:29:04;;;;;;;22.73;14.90;;;;;;;;;;5029752;28;20022;-64
2022/01/25 02:31:51;;;;;;;23.83;14.68;;;;;;;;;;5026763;28;20022;-65
2022/01/25 02:34:37;;;;;;;26.42;16.33;;;;;;;;;;5029300;28;20500;-66
2022/01/25 02:37:22;;;;;;;22.25;14.30;;;;;;;;;;5030331;28;20026;-65
2022/01/25 02:40:07;;;;;;;24.17;15.18;;;;;;;;;;5032715;28;20389;-66
2022/01/25 02:42:53;;;;;;;24.10;14.93;;;;;;;;;;5013464;28;20034;-66
2022/01/25 02:45:38;;;;;;;24.67;15.10;;;;;;;;;;5008649;28;20075;-72
2022/01/25 02:48:30;;;;;;;20.98;13.93;;;;;;;;;;5027201;28;20052;-71
2022/01/25 02:51:15;;;;;;;25.42;15.65;;;;;;;;;;5025827;28;20030;-72
2022/01/25 02:54:01;;;;;;;25.40;16.30;;;;;;;;;;5026851;28;20346;-73
2022/01/25 02:56:46;;;;;;;24.45;15.20;;;;;;;;;;5030420;28;20121;-72
2022/01/25 02:59:31;;;;;;;23.35;14.38;;;;;;;;;;5030012;28;20124;-72
2022/01/25 03:02:17;;;;;;;26.17;15.18;;;;;;;;;;5019294;28;20021;-69
2022/01/25 03:05:03;;;;;;;22.67;14.48;;;;;;;;;;5031476;28;20117;-69
2022/01/25 03:07:48;;;;;;;24.92;14.82;;;;;;;;;;5028451;28;20451;-69
2022/01/25 03:10:35;;;;;;;23.52;15.63;;;;;;;;;;5029494;28;20540;-66
2022/01/25 03:13:26;;;;;;;24.83;14.77;;;;;;;;;;5016992;28;20036;-64
2022/01/25 03:16:19;;;;;;;24.77;15.43;;;;;;;;;;5031244;28;20550;-65
2022/01/25 03:19:29;;;;;;;29.13;17.33;;;;;;;;;;5017667;28;20086;-65
2022/01/25 03:22:43;;;;;;;25.60;15.57;;;;;;;;;;5020137;28;20026;-72
2022/01/25 03:25:26;;;;;;;26.20;16.35;;;;;;;;;;5032281;28;20101;-72
2022/01/25 03:28:11;;;;;;;24.35;15.32;;;;;;;;;;5043001;28;20017;-72
2022/01/25 03:30:56;;;;;;;24.65;15.95;;;;;;;;;;5021444;28;20191;-73
2022/01/25 03:33:41;;;;;;;25.85;16.35;;;;;;;;;;5026788;28;20448;-72
2022/01/25 03:36:27;;;;;;;25.73;16.58;;;;;;;;;;5031892;28;20060;-72
2022/01/25 03:39:13;;;;;;;23.90;15.82;;;;;;;;;;5029947;28;20026;-65
2022/01/25 03:41:58;;;;;;;26.67;16.42;;;;;;;;;;5016266;28;20060;-72
2022/01/25 03:44:44;;;;;;;28.77;18.00;;;;;;;;;;5016550;28;20099;-72
2022/01/25 03:47:43;;;;;;;26.95;16.90;;;;;;;;;;5035008;28;20460;-74
2022/01/25 03:50:28;;;;;;;26.07;16.97;;;;;;;;;;5015235;28;20239;-72
2022/01/25 03:53:14;;;;;;;28.25;16.75;;;;;;;;;;5022510;28;20049;-71
2022/01/25 03:55:59;;;;;;;23.08;15.02;;;;;;;;;;5012925;28;20052;-71
2022/01/25 03:58:45;;;;;;;26.20;16.42;;;;;;;;;;5030412;28;20499;-74
2022/01/25 04:01:30;;;;;;;31.00;17.58;;;;;;;;;;5027437;28;20076;-67
2022/01/25 04:04:19;;;;;;;29.63;17.45;;;;;;;;;;5030082;28;20013;-68
2022/01/25 04:07:09;;;;;;;30.73;18.67;;;;;;;;;;5030571;28;20071;-67
2022/01/25 04:09:54;;;;;;;24.30;16.05;;;;;;;;;;5012898;28;20072;-67
2022/01/25 04:12:40;;;;;;;27.75;17.15;;;;;;;;;;5033116;28;20021;-69
2022/01/25 04:15:25;;;;;;;24.95;15.90;;;;;;;;;;5032685;28;20033;-69
2022/01/25 04:21:24;;;;;;;25.52;14.57;;;;;;;;;;5031911;28;20014;-72
2022/01/25 04:27:13;;;;;;;28.40;16.77;;;;;;;;;;5031608;28;20045;-72
2022/01/25 04:29:59;;;;;;;27.52;16.50;;;;;;;;;;5027413;28;20052;-73
2022/01/25 04:32:51;;;;;;;26.52;15.70;;;;;;;;;;5023346;28;20084;-73
2022/01/25 04:50:58;;;;;;;23.30;15.23;;;;;;;;;;5032705;28;20108;-70
2022/01/25 04:53:55;;;;;;;26.25;16.65;;;;;;;;;;5021637;28;20029;-72
2022/01/25 05:00:22;;;;;;;29.08;18.75;;;;;;;;;;5030012;28;20026;-72
2022/01/25 05:02:54;;;;;;;25.25;16.25;;;;;;;;;;5028200;28;20036;-72
2022/01/25 05:05:53;;;;;;;31.95;16.33;;;;;;;;;;5026888;28;20025;-73
2022/01/25 05:08:47;;;;;;;31.70;17.88;;;;;;;;;;5028827;28;20396;-73
2022/01/25 05:11:35;;;;;;;29.25;18.25;;;;;;;;;;5026964;28;20037;-76
2022/01/25 05:14:24;;;;;;;22.95;16.17;;;;;;;;;;5029698;28;20038;-75
2022/01/25 05:17:11;;;;;;;26.70;16.53;;;;;;;;;;5026990;28;20025;-75
2022/01/25 05:23:01;;;;;;;24.55;15.93;;;;;;;;;;5024310;28;20025;-76
2022/01/25 05:25:46;;;;;;;30.02;16.95;;;;;;;;;;5014678;28;20419;-75
2022/01/25 05:28:32;;;;;;;28.40;17.80;;;;;;;;;;5019103;28;20480;-75
2022/01/25 05:31:17;;;;;;;22.38;13.85;;;;;;;;;;5012328;28;20029;-70
2022/01/25 05:34:03;;;;;;;26.98;15.95;;;;;;;;;;5028786;28;20504;-68
2022/01/25 05:36:48;;;;;;;27.35;16.67;;;;;;;;;;5027991;28;20025;-68
2022/01/25 05:39:36;;;;;;;29.13;18.48;;;;;;;;;;5020705;28;20040;-66
2022/01/25 05:48:47;;;;;;;26.30;17.42;;;;;;;;;;4934146;29;20110;-73
2022/01/25 05:51:32;;;;;;;26.48;16.58;;;;;;;;;;4932383;29;20027;-71
2022/01/25 05:54:17;;;;;;;30.00;19.92;;;;;;;;;;4930788;29;20533;-72
2022/01/25 05:57:03;;;;;;;28.70;17.55;;;;;;;;;;4938018;29;20027;-72
2022/01/25 05:59:49;;;;;;;29.30;16.73;;;;;;;;;;4939434;29;20134;-71
2022/01/25 06:02:35;;;;;;;28.77;17.35;;;;;;;;;;4932402;29;20694;-71
2022/01/25 06:05:23;;;;;;;28.50;17.08;;;;;;;;;;4948697;29;20032;-72
2022/01/25 06:08:08;;;;;;;29.70;19.00;;;;;;;;;;4915683;28;20024;-78
2022/01/25 06:10:53;;;;;;;28.67;17.50;;;;;;;;;;4947858;28;20447;-71
2022/01/25 06:13:39;;;;;;;26.10;17.13;;;;;;;;;;4944343;29;20079;-71
2022/01/25 06:16:28;;;;;;;26.08;16.15;;;;;;;;;;4943566;29;20200;-70
2022/01/25 06:19:13;;;;;;;24.55;15.93;;;;;;;;;;4987724;28;20037;-71
2022/01/25 06:21:58;;;;;;;28.55;17.60;;;;;;;;;;5025290;28;20042;-70
2022/01/25 06:24:43;;;;;;;26.55;17.70;;;;;;;;;;5013642;28;20022;-71
2022/01/25 06:27:29;;;;;;;26.80;17.45;;;;;;;;;;5028723;28;20029;-77
2022/01/25 06:30:17;;;;;;;28.55;18.30;;;;;;;;;;5023334;28;20026;-74
2022/01/25 06:33:02;;;;;;;26.67;16.13;;;;;;;;;;5024816;28;20155;-72
2022/01/25 06:35:48;;;;;;;25.17;15.10;;;;;;;;;;5016934;28;20481;-72
2022/01/25 06:38:33;;;;;;;28.52;16.60;;;;;;;;;;5026450;28;20080;-72
2022/01/25 06:41:19;;;;;;;28.33;15.68;;;;;;;;;;5028775;28;20049;-71
2022/01/25 06:44:04;;;;;;;29.02;18.65;;;;;;;;;;5030478;28;20034;-73
2022/01/25 06:46:50;;;;;;;25.58;16.48;;;;;;;;;;5028221;28;20033;-69
2022/01/25 06:49:35;;;;;;;27.02;17.23;;;;;;;;;;5025352;28;20029;-70
2022/01/25 06:52:20;;;;;;;27.70;17.70;;;;;;;;;;5028358;28;20029;-71
2022/01/25 06:55:07;;;;;;;23.67;15.80;;;;;;;;;;5028362;28;20082;-69
2022/01/25 06:57:52;;;;;;;30.08;19.85;;;;;;;;;;5029569;28;20053;-71
2022/01/25 07:00:37;;;;;;;26.90;16.30;;;;;;;;;;5026846;28;20490;-70
2022/01/25 07:03:23;;;;;;;30.60;18.10;;;;;;;;;;5027311;28;20032;-73
2022/01/25 07:06:08;;;;;;;24.83;17.10;;;;;;;;;;5025871;28;20033;-73
2022/01/25 07:08:54;;;;;;;30.52;18.88;;;;;;;;;;5015848;28;20071;-72
2022/01/25 07:11:40;;;;;;;28.75;17.20;;;;;;;;;;5027698;28;20056;-73
2022/01/25 07:14:25;;;;;;;30.65;19.17;;;;;;;;;;5006373;28;20053;-75
2022/01/25 07:17:10;;;;;;;29.45;16.67;;;;;;;;;;5008059;28;20036;-71
2022/01/25 07:19:55;;;;;;;30.67;19.60;;;;;;;;;;5023078;28;20032;-69
2022/01/25 07:22:41;;;;;;;29.75;18.10;;;;;;;;;;5026132;28;20083;-77
2022/01/25 07:25:26;;;;;;;32.97;19.80;;;;;;;;;;5027212;28;20169;-68
2022/01/25 07:28:12;;;;;;;31.70;16.65;;;;;;;;;;5012810;28;20384;-68
2022/01/25 07:30:57;;;;;;;29.17;18.20;;;;;;;;;;5024828;28;20025;-67
2022/01/25 07:33:42;;;;;;;32.15;18.80;;;;;;;;;;5019894;28;20124;-68
2022/01/25 07:36:27;;;;;;;30.20;18.42;;;;;;;;;;5008738;28;20053;-67
2022/01/25 07:39:13;;;;;;;33.75;19.63;;;;;;;;;;5026461;28;20025;-68
2022/01/25 07:41:59;;;;;;;32.75;19.45;;;;;;;;;;5030246;28;20394;-70
2022/01/25 07:44:44;;;;;;;30.15;17.45;;;;;;;;;;5028259;28;20032;-71
2022/01/25 07:47:30;;;;;;;30.95;20.23;;;;;;;;;;5030513;28;20033;-71
2022/01/25 07:50:15;;;;;;;32.70;20.65;;;;;;;;;;5029972;28;20040;-70
2022/01/25 07:53:01;;;;;;;31.85;20.85;;;;;;;;;;5020700;28;20048;-71
2022/01/25 07:55:46;;;;;;;34.00;21.10;;;;;;;;;;5025738;28;20037;-71
2022/01/25 07:58:31;;;;;;;34.85;19.17;;;;;;;;;;5030268;28;20025;-66
2022/01/25 08:01:17;;;;;;;36.25;21.17;;;;;;;;;;5026770;28;20029;-70
2022/01/25 08:04:02;;;;;;;31.25;21.05;;;;;;;;;;5023692;28;20103;-70
2022/01/25 08:06:48;;;;;;;29.30;18.38;;;;;;;;;;5029373;28;20381;-68
2022/01/25 08:09:33;;;;;;;36.53;21.63;;;;;;;;;;5026342;28;20030;-70
2022/01/25 08:12:18;;;;;;;33.47;20.75;;;;;;;;;;5027776;28;20021;-68
2022/01/25 08:15:05;;;;;;;29.75;18.90;;;;;;;;;;5028953;28;20168;-66
2022/01/25 08:17:51;;;;;;;36.03;22.33;;;;;;;;;;5009195;28;20013;-68
2022/01/25 08:20:36;;;;;;;36.03;20.30;;;;;;;;;;5015744;28;20432;-81
2022/01/25 08:23:21;;;;;;;42.22;21.63;;;;;;;;;;5012869;28;20033;-87
2022/01/25 08:26:06;;;;;;;34.70;21.30;;;;;;;;;;5022050;28;20440;-76
2022/01/25 08:28:52;;;;;;;35.75;21.30;;;;;;;;;;5011486;28;20530;-76
2022/01/25 08:31:38;;;;;;;32.40;20.65;;;;;;;;;;5011501;28;20025;-78
2022/01/25 08:34:24;;;;;;;35.45;20.80;;;;;;;;;;5028383;28;20039;-71
2022/01/25 08:37:09;;;;;;;38.80;23.45;;;;;;;;;;5028531;28;20049;-71
2022/01/25 08:39:54;;;;;;;34.70;20.92;;;;;;;;;;5028317;28;20021;-70
2022/01/25 08:42:40;;;;;;;34.28;22.92;;;;;;;;;;5029865;28;20811;-70
2022/01/25 08:45:26;;;;;;;39.92;24.15;;;;;;;;;;5024432;28;20460;-71
2022/01/25 08:48:11;;;;;;;33.75;22.42;;;;;;;;;;5029856;28;20026;-67
2022/01/25 08:50:58;;;;;;;36.88;23.63;;;;;;;;;;5027895;28;20468;-70
2022/01/25 08:53:43;;;;;;;33.47;20.20;;;;;;;;;;5025209;28;20427;-72
2022/01/25 08:56:28;;;;;;;36.58;20.60;;;;;;;;;;5014709;28;20075;-70
2022/01/25 08:59:14;;;;;;;38.25;21.88;;;;;;;;;;5022691;28;20039;-68
2022/01/25 09:02:00;;;;;;;36.45;23.15;;;;;;;;;;5028410;28;20052;-69
2022/01/25 09:04:45;;;;;;;38.55;23.05;;;;;;;;;;5012360;28;20551;-70
2022/01/25 09:07:30;;;;;;;37.08;23.15;;;;;;;;;;5017499;28;20109;-71
2022/01/25 09:10:15;;;;;;;39.92;22.45;;;;;;;;;;5026278;28;20040;-77
2022/01/25 09:13:01;;;;;;;38.15;24.42;;;;;;;;;;5008719;28;20033;-72
2022/01/25 09:15:46;;;;;;;32.70;20.50;;;;;;;;;;5024842;28;20026;-74
2022/01/25 09:18:31;;;;;;;39.10;22.23;;;;;;;;;;5007493;28;20021;-73
2022/01/25 09:21:17;;;;;;;32.08;20.45;;;;;;;;;;5028132;28;20028;-73
2022/01/25 09:24:03;;;;;;;37.50;21.27;;;;;;;;;;5028934;28;20021;-72
2022/01/25 09:26:48;;;;;;;37.10;22.13;;;;;;;;;;5011083;28;20485;-73
2022/01/25 09:29:33;;;;;;;36.70;23.15;;;;;;;;;;5024701;28;20033;-66
2022/01/25 09:32:19;;;;;;;31.45;19.50;;;;;;;;;;5013535;28;20025;-66
2022/01/25 09:35:04;;;;;;;33.70;19.42;;;;;;;;;;5015581;28;20105;-67
2022/01/25 09:37:51;;;;;;;33.08;21.02;;;;;;;;;;5025897;28;20018;-66
2022/01/25 09:40:36;;;;;;;33.90;21.23;;;;;;;;;;5027458;28;20033;-67
2022/01/25 09:43:23;;;;;;;35.03;19.98;;;;;;;;;;5026457;28;20033;-70
2022/01/25 09:46:09;;;;;;;28.23;18.90;;;;;;;;;;5023245;28;20036;-69
2022/01/25 09:48:54;;;;;;;34.80;23.25;;;;;;;;;;5016283;28;20056;-70
2022/01/25 09:51:41;;;;;;;34.33;20.70;;;;;;;;;;5022572;28;20009;-72
2022/01/25 09:54:26;;;;;;;32.15;20.88;;;;;;;;;;5029904;28;20043;-70
2022/01/25 09:57:13;;;;;;;34.40;21.60;;;;;;;;;;5025667;28;20096;-74
2022/01/25 09:59:58;;;;;;;28.00;17.58;;;;;;;;;;5011628;28;20037;-74
2022/01/25 10:02:54;;;;;;;41.15;22.60;;;;;;;;;;5024372;28;20025;-75
2022/01/25 10:05:42;;;;;;;30.15;18.85;;;;;;;;;;5028209;28;20025;-72
2022/01/25 10:08:29;;;;;;;29.35;19.67;;;;;;;;;;5028245;28;20037;-79
2022/01/25 10:11:16;;;;;;;34.35;20.85;;;;;;;;;;5026883;28;20103;-70
2022/01/25 10:14:06;;;;;;;38.15;22.75;;;;;;;;;;5013848;28;20152;-71
2022/01/25 10:16:56;;;;;;;35.90;22.73;;;;;;;;;;5026222;28;20025;-68
2022/01/25 10:19:42;;;;;;;31.38;21.05;;;;;;;;;;5012410;28;20040;-70
2022/01/25 10:22:35;;;;;;;35.80;22.55;;;;;;;;;;5025064;28;20362;-71
2022/01/25 10:25:28;;;;;;;30.27;20.02;;;;;;;;;;5041312;28;20499;-74
2022/01/25 10:28:14;;;;;;;29.83;19.42;;;;;;;;;;5024095;28;20041;-66
2022/01/25 10:31:01;;;;;;;30.63;19.42;;;;;;;;;;5022221;28;20022;-67
2022/01/25 10:33:53;;;;;;;26.70;18.42;;;;;;;;;;5027260;28;20026;-69
2022/01/25 10:36:45;;;;;;;28.73;19.38;;;;;;;;;;5026329;28;20029;-72
2022/01/25 10:39:31;;;;;;;27.92;18.77;;;;;;;;;;5026453;28;20492;-68
2022/01/25 10:42:19;;;;;;;30.80;19.77;;;;;;;;;;5028686;28;20049;-72
2022/01/25 10:45:09;;;;;;;31.23;20.80;;;;;;;;;;5025841;28;20040;-72
2022/01/25 10:47:56;;;;;;;32.05;20.45;;;;;;;;;;5028014;28;20492;-75
2022/01/25 10:50:44;;;;;;;31.83;22.33;;;;;;;;;;5016287;28;20075;-73
2022/01/25 10:53:29;;;;;;;29.90;21.30;;;;;;;;;;5011303;28;20029;-74
2022/01/25 10:56:15;;;;;;;35.97;22.13;;;;;;;;;;5020975;28;20453;-76
2022/01/25 10:59:01;;;;;;;35.35;23.33;;;;;;;;;;5023081;28;20140;-74
2022/01/25 11:01:53;;;;;;;33.92;22.40;;;;;;;;;;5015514;28;20022;-72
2022/01/25 11:04:41;;;;;;;36.35;22.88;;;;;;;;;;5015817;28;20032;-69
2022/01/25 11:07:35;;;;;;;31.65;23.08;;;;;;;;;;5020488;28;20117;-68
2022/01/25 11:10:21;;;;;;;37.95;33.38;;;;;;;;;;5016663;28;20033;-69
2022/01/25 11:13:21;;;;;;;28.38;21.30;;;;;;;;;;5015867;28;20110;-71
2022/01/25 11:16:08;;;;;;;33.35;21.80;;;;;;;;;;5033606;28;20086;-66
2022/01/25 11:18:53;;;;;;;31.52;23.95;;;;;;;;;;5029936;28;20034;-66
2022/01/25 11:21:39;;;;;;;1999.90;999.90;;;;;;;;;;5029634;28;20436;-71
2022/01/25 11:24:26;;;;;;;1999.90;999.90;;;;;;;;;;5012668;28;20033;-71
2022/01/25 11:27:12;;;;;;;1999.90;999.90;;;;;;;;;;5014565;28;20018;-68
2022/01/25 11:29:59;;;;;;;1999.90;999.90;;;;;;;;;;5023106;28;20450;-69
2022/01/25 11:32:46;;;;;;;1999.90;999.90;;;;;;;;;;5026933;28;20025;-68
2022/01/25 11:35:32;;;;;;;1999.90;999.90;;;;;;;;;;5018552;28;20056;-67
2022/01/25 11:38:30;;;;;;;1999.90;999.90;;;;;;;;;;5009203;28;20110;-72
2022/01/25 11:41:17;;;;;;;1999.90;999.90;;;;;;;;;;5024348;28;20041;-73
2022/01/25 11:44:07;;;;;;;1999.90;999.90;;;;;;;;;;5020406;28;20029;-75
2022/01/25 11:46:56;;;;;;;44.58;40.83;;;;;;;;;;5027397;28;20400;-74
2022/01/25 11:49:51;;;;;;;28.42;21.95;;;;;;;;;;5013114;28;20056;-74
2022/01/25 11:52:45;;;;;;;31.77;23.30;;;;;;;;;;5014116;28;20110;-75
2022/01/25 11:55:33;;;;;;;32.30;21.67;;;;;;;;;;5021292;28;20043;-76
2022/01/25 11:58:29;;;;;;;29.05;21.52;;;;;;;;;;5019096;28;20033;-73
2022/01/25 12:01:16;;;;;;;30.60;22.00;;;;;;;;;;5015664;28;20079;-71
2022/01/25 12:04:06;;;;;;;33.25;22.67;;;;;;;;;;5026583;28;20035;-74
2022/01/25 12:07:00;;;;;;;29.20;22.50;;;;;;;;;;5028435;28;20025;-73
2022/01/25 12:09:50;;;;;;;30.08;22.08;;;;;;;;;;5021488;28;20067;-75
2022/01/25 12:12:38;;;;;;;29.48;22.65;;;;;;;;;;5024308;28;20392;-71
2022/01/25 12:15:23;;;;;;;30.13;21.33;;;;;;;;;;5023911;28;20047;-79
2022/01/25 12:18:09;;;;;;;37.78;24.08;;;;;;;;;;5012984;28;20049;-72
2022/01/25 12:20:55;;;;;;;32.20;22.30;;;;;;;;;;5015093;28;20522;-72
2022/01/25 12:23:45;;;;;;;36.92;23.40;;;;;;;;;;5024892;28;20026;-72
2022/01/25 12:27:03;;;;;;;35.15;23.60;;;;;;;;;;5027412;28;20053;-71
2022/01/25 12:29:57;;;;;;;35.30;25.30;;;;;;;;;;5019252;28;20115;-71
2022/01/25 12:32:48;;;;;;;38.55;26.52;;;;;;;;;;5021375;28;20108;-73
2022/01/25 12:35:35;;;;;;;39.13;27.48;;;;;;;;;;5016254;28;20107;-69
2022/01/25 12:38:41;;;;;;;41.40;28.85;;;;;;;;;;5028765;28;20028;-73
2022/01/25 12:41:31;;;;;;;38.72;25.75;;;;;;;;;;4988116;28;1118456;-73
2022/01/25 12:44:20;;;;;;;36.53;25.00;;;;;;;;;;5030464;28;20064;-74
2022/01/25 12:47:05;;;;;;;41.65;28.88;;;;;;;;;;5008269;28;20079;-72
2022/01/25 12:49:51;;;;;;;42.55;27.48;;;;;;;;;;5031168;28;20442;-76
2022/01/25 12:52:38;;;;;;;36.60;26.35;;;;;;;;;;5018483;28;20017;-73
2022/01/25 12:55:29;;;;;;;38.20;25.27;;;;;;;;;;5016860;28;20034;-65
2022/01/25 12:58:14;;;;;;;37.85;26.55;;;;;;;;;;5030712;28;20029;-66
2022/01/25 13:01:03;;;;;;;36.22;26.20;;;;;;;;;;5029568;28;20017;-66
2022/01/25 13:03:50;;;;;;;39.53;26.67;;;;;;;;;;5019250;28;20029;-69
2022/01/25 13:06:37;;;;;;;36.67;25.40;;;;;;;;;;5014301;28;20270;-69
2022/01/25 13:09:35;;;;;;;37.50;25.88;;;;;;;;;;5015278;28;20045;-71
2022/01/25 13:12:30;;;;;;;35.65;25.50;;;;;;;;;;5013574;28;20033;-74
2022/01/25 13:18:27;;;;;;;38.13;24.33;;;;;;;;;;5014115;28;20370;-71
2022/01/25 13:21:12;;;;;;;39.13;24.50;;;;;;;;;;5026061;28;20111;-70
2022/01/25 13:23:58;;;;;;;35.17;25.23;;;;;;;;;;5027905;28;20049;-70
2022/01/25 13:27:13;;;;;;;40.10;26.63;;;;;;;;;;5026869;28;20021;-71
2022/01/25 13:33:03;;;;;;;38.13;26.73;;;;;;;;;;5027366;28;20021;-74
2022/01/25 13:35:53;;;;;;;37.28;25.25;;;;;;;;;;5009746;28;20037;-78
2022/01/25 13:38:40;;;;;;;36.40;25.00;;;;;;;;;;5024461;28;20040;-72
2022/01/25 13:41:29;;;;;;;39.20;26.05;;;;;;;;;;5012936;28;20083;-74
2022/01/25 13:47:21;;;;;;;41.13;25.80;;;;;;;;;;5039623;28;20025;-70
2022/01/25 13:50:06;;;;;;;40.22;26.88;;;;;;;;;;5004090;28;20044;-75
2022/01/25 13:52:52;;;;;;;41.90;26.17;;;;;;;;;;5028904;28;20400;-73
2022/01/25 13:55:38;;;;;;;40.65;26.95;;;;;;;;;;5025750;28;20037;-75
2022/01/25 13:58:26;;;;;;;40.03;25.65;;;;;;;;;;5028520;28;20440;-76
2022/01/25 14:01:13;;;;;;;38.42;25.67;;;;;;;;;;5023761;28;20025;-73
2022/01/25 14:04:00;;;;;;;41.42;27.55;;;;;;;;;;5026451;28;20056;-72
2022/01/25 14:06:59;;;;;;;35.92;25.42;;;;;;;;;;5026019;28;20033;-70
2022/01/25 14:09:49;;;;;;;39.67;26.90;;;;;;;;;;5010253;28;20021;-71
2022/01/25 14:24:55;;;;;;;43.50;29.15;;;;;;;;;;4971313;28;20188;-71
2022/01/25 14:27:51;;;;;;;42.97;27.90;;;;;;;;;;5001180;28;20025;-72
2022/01/25 14:30:38;;;;;;;46.17;30.55;;;;;;;;;;5027045;28;20029;-74
2022/01/25 14:33:25;;;;;;;40.63;28.40;;;;;;;;;;5031897;28;20022;-75
2022/01/25 14:36:10;;;;;;;41.50;28.90;;;;;;;;;;5027704;28;20427;-74
2022/01/25 14:38:57;;;;;;;44.22;31.10;;;;;;;;;;5029985;28;20512;-72
2022/01/25 14:41:43;;;;;;;43.45;28.75;;;;;;;;;;5006407;28;20107;-65
2022/01/25 14:44:30;;;;;;;44.33;29.08;;;;;;;;;;5030422;28;20100;-76
2022/01/25 14:47:17;;;;;;;44.10;29.67;;;;;;;;;;5031269;28;20079;-66
2022/01/25 14:50:04;;;;;;;42.42;29.35;;;;;;;;;;5033193;28;20033;-67
2022/01/25 14:53:06;;;;;;;46.70;29.10;;;;;;;;;;5023299;28;20024;-68
2022/01/25 14:55:52;;;;;;;41.65;27.83;;;;;;;;;;5031069;28;20084;-68
2022/01/25 15:01:42;;;;;;;48.95;30.58;;;;;;;;;;5026072;28;20035;-74
2022/01/25 15:04:30;;;;;;;46.33;30.73;;;;;;;;;;5032090;28;20083;-68
2022/01/25 15:07:20;;;;;;;45.05;28.88;;;;;;;;;;5033738;28;20419;-66
2022/01/25 15:10:07;;;;;;;45.05;30.10;;;;;;;;;;5029588;28;20029;-71
2022/01/25 15:12:52;;;;;;;49.45;32.45;;;;;;;;;;5031835;28;20108;-69
2022/01/25 15:15:56;;;;;;;56.63;33.30;;;;;;;;;;5027789;28;20033;-68
2022/01/25 15:18:41;;;;;;;50.00;32.25;;;;;;;;;;5028175;28;21444;-76
2022/01/25 15:21:27;;;;;;;46.58;30.55;;;;;;;;;;5027867;28;20032;-69
2022/01/25 15:24:12;;;;;;;48.47;30.75;;;;;;;;;;5029382;28;20051;-71
2022/01/25 15:27:04;;;;;;;49.65;30.77;;;;;;;;;;5030281;28;20344;-69
2022/01/25 15:29:50;;;;;;;54.35;32.38;;;;;;;;;;5025111;28;20519;-71
2022/01/25 15:32:36;;;;;;;53.67;33.15;;;;;;;;;;5025903;28;20036;-71
2022/01/25 15:35:23;;;;;;;50.42;31.25;;;;;;;;;;5029141;28;20063;-71
2022/01/25 15:38:09;;;;;;;46.67;29.20;;;;;;;;;;5025279;28;20018;-69
2022/01/25 15:40:54;;;;;;;46.00;28.80;;;;;;;;;;5024051;28;20169;-70
2022/01/25 15:43:53;;;;;;;53.95;32.17;;;;;;;;;;5025640;28;20330;-70
2022/01/25 15:49:36;;;;;;;54.40;33.30;;;;;;;;;;5023473;28;20017;-71
2022/01/25 15:52:21;;;;;;;51.60;31.50;;;;;;;;;;4999554;28;20645;-71
2022/01/25 15:55:06;;;;;;;58.50;34.20;;;;;;;;;;5013493;28;20102;-69
2022/01/25 15:57:52;;;;;;;53.10;32.72;;;;;;;;;;5028583;28;20026;-71
2022/01/25 16:00:37;;;;;;;57.85;34.25;;;;;;;;;;5029409;28;20025;-76
2022/01/25 16:03:22;;;;;;;61.97;33.88;;;;;;;;;;5028171;28;20021;-78
2022/01/25 16:06:08;;;;;;;53.53;32.28;;;;;;;;;;5032700;28;20029;-76
2022/01/25 16:08:54;;;;;;;60.10;35.17;;;;;;;;;;5029063;28;20033;-77
2022/01/25 16:11:39;;;;;;;60.35;36.58;;;;;;;;;;5028118;28;20112;-77
2022/01/25 16:14:24;;;;;;;54.90;32.45;;;;;;;;;;5020487;28;20370;-71
2022/01/25 16:17:09;;;;;;;60.88;35.13;;;;;;;;;;5020368;28;20020;-70
2022/01/25 16:19:55;;;;;;;55.95;35.78;;;;;;;;;;5011574;28;20038;-73
2022/01/25 16:22:40;;;;;;;59.03;33.85;;;;;;;;;;5014767;28;20088;-69
2022/01/25 16:25:26;;;;;;;61.00;35.92;;;;;;;;;;5013217;28;20112;-69
2022/01/25 16:28:11;;;;;;;65.30;38.75;;;;;;;;;;5002443;28;20025;-69
2022/01/25 16:31:05;;;;;;;65.28;35.97;;;;;;;;;;5030018;28;20017;-69
2022/01/25 16:33:51;;;;;;;69.70;38.35;;;;;;;;;;5030340;28;20029;-81
2022/01/25 16:36:37;;;;;;;61.05;35.75;;;;;;;;;;5033258;28;20064;-68
2022/01/25 16:39:25;;;;;;;62.00;37.70;;;;;;;;;;5030084;28;20438;-69
2022/01/25 16:42:10;;;;;;;63.72;35.08;;;;;;;;;;5011984;28;20056;-70
2022/01/25 16:44:59;;;;;;;64.05;36.83;;;;;;;;;;5010313;28;20025;-69
2022/01/25 16:47:46;;;;;;;68.67;38.73;;;;;;;;;;5016454;28;20079;-69
2022/01/25 16:50:35;;;;;;;59.72;35.53;;;;;;;;;;5031009;28;20380;-69
2022/01/25 16:53:21;;;;;;;62.22;35.80;;;;;;;;;;5014545;28;20035;-70
2022/01/25 16:56:06;;;;;;;61.25;36.75;;;;;;;;;;5027356;28;20099;-70
2022/01/25 16:59:00;;;;;;;54.80;34.88;;;;;;;;;;5010840;28;20029;-70
2022/01/25 17:01:45;;;;;;;65.88;37.88;;;;;;;;;;5030340;28;20087;-71
2022/01/25 17:04:31;;;;;;;63.50;35.83;;;;;;;;;;5027725;28;20064;-69
2022/01/25 17:07:16;;;;;;;58.50;35.95;;;;;;;;;;5041331;28;20052;-69
2022/01/25 17:10:03;;;;;;;98.18;49.55;;;;;;;;;;5015699;28;20029;-70
2022/01/25 17:12:49;;;;;;;75.72;41.58;;;;;;;;;;5027758;28;20508;-74
2022/01/25 17:15:34;;;;;;;71.38;42.28;;;;;;;;;;5012981;28;20095;-74
2022/01/25 17:18:19;;;;;;;64.63;37.67;;;;;;;;;;5028514;28;20037;-75
2022/01/25 17:21:05;;;;;;;63.25;37.97;;;;;;;;;;5015721;28;20025;-72
2022/01/25 17:23:50;;;;;;;56.58;36.55;;;;;;;;;;5027324;28;20037;-74
2022/01/25 17:26:35;;;;;;;61.72;36.75;;;;;;;;;;5028239;28;20097;-72
2022/01/25 17:29:21;;;;;;;70.20;39.58;;;;;;;;;;5028706;28;20086;-87
2022/01/25 17:32:06;;;;;;;61.55;36.72;;;;;;;;;;5025234;28;20025;-73
2022/01/25 17:34:51;;;;;;;66.57;38.38;;;;;;;;;;5012745;28;20408;-72
2022/01/25 17:37:37;;;;;;;73.43;43.58;;;;;;;;;;5027601;28;20492;-73
2022/01/25 17:40:22;;;;;;;65.95;37.22;;;;;;;;;;5014488;28;20036;-72
2022/01/25 17:43:07;;;;;;;64.05;35.92;;;;;;;;;;5029163;28;20041;-72
2022/01/25 17:45:53;;;;;;;70.72;40.30;;;;;;;;;;5027820;28;20097;-71
2022/01/25 17:48:38;;;;;;;65.05;38.03;;;;;;;;;;5030465;28;20056;-72
2022/01/25 17:51:24;;;;;;;70.28;39.55;;;;;;;;;;5031047;28;20481;-86
2022/01/25 17:54:09;;;;;;;79.03;41.42;;;;;;;;;;5026463;28;20124;-83
2022/01/25 17:56:55;;;;;;;69.65;38.42;;;;;;;;;;5029518;28;20520;-85
2022/01/25 17:59:40;;;;;;;69.45;38.67;;;;;;;;;;5012856;28;20029;-84
2022/01/25 18:02:28;;;;;;;73.68;40.75;;;;;;;;;;5016737;28;20061;-88
2022/01/25 18:05:13;;;;;;;64.30;36.92;;;;;;;;;;5029536;28;20134;-69
2022/01/25 18:07:59;;;;;;;67.53;38.70;;;;;;;;;;5012454;28;20095;-73
2022/01/25 18:10:44;;;;;;;73.18;39.28;;;;;;;;;;5021504;28;20022;-71
2022/01/25 18:13:29;;;;;;;66.22;38.53;;;;;;;;;;5013318;28;20037;-69